createdAt,value
2022-08-26T00:00:25.010Z,100144.40
2022-08-26T00:03:09.464Z,100133.00
2022-08-26T00:05:45.383Z,100130.00
2022-08-26T00:08:20.610Z,100127.00
2022-08-26T00:10:53.662Z,100127.60
2022-08-26T00:13:26.551Z,100128.00
2022-08-26T00:15:59.650Z,100123.40
2022-08-26T00:18:33.199Z,100122.20
2022-08-26T00:21:12.311Z,100124.40
2022-08-26T00:23:45.339Z,100123.80
2022-08-26T00:26:18.735Z,100118.80
2022-08-26T00:28:53.626Z,100119.60
2022-08-26T00:31:26.491Z,100115.00
2022-08-26T00:33:59.941Z,100117.80
2022-08-26T00:36:33.093Z,100118.80
2022-08-26T00:39:07.231Z,100109.00
2022-08-26T00:41:41.790Z,100107.80
2022-08-26T00:44:15.275Z,100111.80
2022-08-26T00:46:54.498Z,100106.40
2022-08-26T00:49:37.895Z,100107.00
2022-08-26T00:52:21.569Z,100105.80
2022-08-26T00:55:04.288Z,100104.20
2022-08-26T00:57:39.008Z,100098.60
2022-08-26T01:00:18.988Z,100101.40
2022-08-26T01:02:52.550Z,100103.20
2022-08-26T01:05:25.842Z,100104.60
2022-08-26T01:07:58.662Z,100098.20
2022-08-26T01:10:32.855Z,100098.40
2022-08-26T01:13:10.298Z,100096.40
2022-08-26T01:15:47.787Z,100099.20
2022-08-26T01:18:21.268Z,100097.00
2022-08-26T01:21:04.854Z,100098.60
2022-08-26T01:23:45.019Z,100099.40
2022-08-26T01:26:24.189Z,100100.40
2022-08-26T01:29:03.184Z,100103.00
2022-08-26T01:31:48.578Z,100100.40
2022-08-26T01:34:25.688Z,100099.20
2022-08-26T01:37:14.682Z,100104.20
2022-08-26T01:39:53.585Z,100105.20
2022-08-26T01:42:28.741Z,100100.00
2022-08-26T01:45:08.255Z,100099.60
2022-08-26T01:47:42.771Z,100099.40
2022-08-26T01:50:28.080Z,100102.00
2022-08-26T01:53:07.255Z,100096.60
2022-08-26T01:55:44.326Z,100099.40
2022-08-26T01:58:23.322Z,100095.60
2022-08-26T02:00:56.552Z,100100.40
2022-08-26T02:03:30.986Z,100102.40
2022-08-26T02:06:10.257Z,100106.40
2022-08-26T02:08:46.796Z,100103.60
2022-08-26T02:11:20.899Z,100100.60
2022-08-26T02:13:57.637Z,100098.00
2022-08-26T02:16:34.018Z,100097.00
2022-08-26T02:19:11.705Z,100089.20
2022-08-26T02:21:53.250Z,100090.20
2022-08-26T02:24:28.493Z,100092.80
2022-08-26T02:27:01.894Z,100096.00
2022-08-26T02:29:41.715Z,100095.00
2022-08-26T02:32:18.433Z,100090.20
2022-08-26T02:34:51.675Z,100096.80
2022-08-26T02:37:24.610Z,100093.20
2022-08-26T02:39:59.449Z,100095.20
2022-08-26T02:42:35.322Z,100089.80
2022-08-26T02:45:10.780Z,100091.60
2022-08-26T02:47:43.726Z,100088.00
2022-08-26T02:50:16.747Z,100091.80
2022-08-26T02:52:50.007Z,100089.60
2022-08-26T02:55:24.674Z,100088.40
2022-08-26T02:57:57.867Z,100087.80
2022-08-26T03:00:31.544Z,100087.80
2022-08-26T03:03:04.451Z,100087.20
2022-08-26T03:05:37.907Z,100086.80
2022-08-26T03:08:13.200Z,100082.20
2022-08-26T03:10:48.119Z,100080.00
2022-08-26T03:13:22.238Z,100080.80
2022-08-26T03:15:55.556Z,100083.00
2022-08-26T03:18:29.132Z,100079.40
2022-08-26T03:21:05.802Z,100076.60
2022-08-26T03:23:39.725Z,100078.00
2022-08-26T03:26:14.066Z,100071.80
2022-08-26T03:29:01.055Z,100071.00
2022-08-26T03:31:35.230Z,100064.60
2022-08-26T03:34:08.195Z,100063.40
2022-08-26T03:36:41.675Z,100054.80
2022-08-26T03:39:15.531Z,100060.40
2022-08-26T03:41:48.335Z,100059.00
2022-08-26T03:44:21.544Z,100062.00
2022-08-26T03:46:55.097Z,100067.80
2022-08-26T03:49:28.961Z,100061.80
2022-08-26T03:52:01.918Z,100064.60
2022-08-26T03:54:36.652Z,100069.00
2022-08-26T03:57:10.024Z,100069.80
2022-08-26T03:59:43.436Z,100067.80
2022-08-26T04:02:16.835Z,100066.60
2022-08-26T04:04:50.757Z,100065.40
2022-08-26T04:07:26.400Z,100068.80
2022-08-26T04:10:01.226Z,100067.40
2022-08-26T04:12:34.025Z,100068.80
2022-08-26T04:15:09.429Z,100071.40
2022-08-26T04:17:42.767Z,100064.40
2022-08-26T04:20:18.523Z,100070.00
2022-08-26T04:22:51.382Z,100065.20
2022-08-26T04:25:24.572Z,100060.00
2022-08-26T04:27:57.660Z,100063.20
2022-08-26T04:30:30.647Z,100062.60
2022-08-26T04:33:12.647Z,100065.80
2022-08-26T04:35:46.090Z,100068.60
2022-08-26T04:38:21.323Z,100074.80
2022-08-26T04:40:54.882Z,100069.00
2022-08-26T04:43:30.734Z,100068.20
2022-08-26T04:46:06.511Z,100072.40
2022-08-26T04:48:39.735Z,100071.00
2022-08-26T04:51:12.927Z,100068.40
2022-08-26T04:53:46.332Z,100062.80
2022-08-26T04:56:19.150Z,100067.60
2022-08-26T04:58:51.833Z,100066.20
2022-08-26T05:01:24.733Z,100066.20
2022-08-26T05:03:57.528Z,100061.20
2022-08-26T05:06:31.054Z,100062.20
2022-08-26T05:09:10.252Z,100064.40
2022-08-26T05:11:43.224Z,100061.40
2022-08-26T05:14:16.027Z,100064.80
2022-08-26T05:16:49.245Z,100068.40
2022-08-26T05:19:22.955Z,100067.40
2022-08-26T05:21:56.187Z,100076.00
2022-08-26T05:24:30.507Z,100075.60
2022-08-26T05:27:04.148Z,100080.60
2022-08-26T05:29:44.470Z,100082.20
2022-08-26T05:32:17.454Z,100076.60
2022-08-26T05:34:54.232Z,100079.80
2022-08-26T05:37:27.127Z,100072.20
2022-08-26T05:40:00.054Z,100077.40
2022-08-26T05:42:33.992Z,100071.40
2022-08-26T05:45:08.600Z,100069.20
2022-08-26T05:47:41.833Z,100069.00
2022-08-26T05:50:14.930Z,100058.20
2022-08-26T05:52:47.729Z,100062.00
2022-08-26T05:55:21.637Z,100060.40
2022-08-26T05:57:55.476Z,100059.80
2022-08-26T06:00:29.020Z,100056.40
2022-08-26T06:03:02.001Z,100053.20
2022-08-26T06:05:39.243Z,100056.80
2022-08-26T06:08:14.201Z,100056.60
2022-08-26T06:10:55.805Z,100059.60
2022-08-26T06:13:31.968Z,100062.80
2022-08-26T06:16:11.377Z,100064.60
2022-08-26T06:18:47.267Z,100059.60
2022-08-26T06:21:25.501Z,100063.80
2022-08-26T06:24:18.742Z,100061.60
2022-08-26T06:26:55.265Z,100059.60
2022-08-26T06:29:30.242Z,100066.20
2022-08-26T06:32:04.574Z,100063.60
2022-08-26T06:34:37.671Z,100064.00
2022-08-26T06:37:10.639Z,100071.60
2022-08-26T06:39:44.550Z,100064.40
2022-08-26T06:42:17.459Z,100070.00
2022-08-26T06:44:50.524Z,100070.40
2022-08-26T06:47:23.729Z,100072.20
2022-08-26T06:49:57.930Z,100072.60
2022-08-26T06:52:30.933Z,100065.80
2022-08-26T06:55:03.959Z,100062.80
2022-08-26T06:57:41.070Z,100060.00
2022-08-26T07:00:18.377Z,100060.80
2022-08-26T07:02:53.509Z,100059.60
2022-08-26T07:05:26.965Z,100065.00
2022-08-26T07:07:59.793Z,100062.40
2022-08-26T07:10:32.881Z,100062.00
2022-08-26T07:13:07.969Z,100067.00
2022-08-26T07:15:47.021Z,100061.00
2022-08-26T07:18:25.929Z,100064.60
2022-08-26T07:20:59.062Z,100060.80
2022-08-26T07:23:32.467Z,100067.20
2022-08-26T07:26:09.030Z,100067.00
2022-08-26T07:28:41.852Z,100068.40
2022-08-26T07:31:17.835Z,100066.20
2022-08-26T07:33:52.096Z,100066.40
2022-08-26T07:36:26.988Z,100061.00
2022-08-26T07:39:00.204Z,100063.60
2022-08-26T07:41:33.302Z,100062.00
2022-08-26T07:44:08.986Z,100067.20
2022-08-26T07:46:44.006Z,100067.20
2022-08-26T07:49:18.315Z,100064.60
2022-08-26T07:51:51.666Z,100068.00
2022-08-26T07:54:26.995Z,100067.40
2022-08-26T07:57:00.328Z,100067.00
2022-08-26T07:59:38.033Z,100063.00
2022-08-26T08:02:11.247Z,100065.80
2022-08-26T08:04:44.151Z,100064.00
2022-08-26T08:07:17.186Z,100061.00
2022-08-26T08:09:51.616Z,100058.80
2022-08-26T08:23:06.967Z,100061.80
2022-08-26T08:25:40.175Z,100059.00
2022-08-26T08:28:13.131Z,100062.40
2022-08-26T08:30:46.042Z,100064.20
2022-08-26T08:33:19.631Z,100062.80
2022-08-26T08:35:52.453Z,100059.80
2022-08-26T08:38:25.594Z,100059.40
2022-08-26T08:40:59.191Z,100055.80
2022-08-26T08:43:43.038Z,100053.40
2022-08-26T08:46:19.790Z,100053.00
2022-08-26T08:48:58.931Z,100049.80
2022-08-26T08:51:41.449Z,100047.80
2022-08-26T08:54:15.195Z,100046.40
2022-08-26T08:56:54.590Z,100043.80
2022-08-26T08:59:34.136Z,100038.80
2022-08-26T09:02:16.670Z,100039.00
2022-08-26T09:05:07.292Z,100038.20
2022-08-26T09:07:47.028Z,100036.80
2022-08-26T09:10:37.677Z,100038.40
2022-08-26T09:13:16.747Z,100039.60
2022-08-26T09:16:07.121Z,100036.60
2022-08-26T09:19:05.592Z,100039.20
2022-08-26T09:21:39.170Z,100034.20
2022-08-26T09:24:13.849Z,100034.20
2022-08-26T09:26:49.834Z,100033.60
2022-08-26T09:29:29.268Z,100033.60
2022-08-26T09:32:21.342Z,100034.60
2022-08-26T09:35:02.331Z,100029.40
2022-08-26T09:37:43.174Z,100028.00
2022-08-26T09:40:27.317Z,100030.60
2022-08-26T09:43:22.347Z,100031.40
2022-08-26T09:46:11.347Z,100036.00
2022-08-26T09:48:44.823Z,100032.80
2022-08-26T09:51:34.138Z,100031.60
2022-08-26T09:54:07.687Z,100030.00
2022-08-26T09:56:42.789Z,100033.00
2022-08-26T09:59:30.246Z,100022.20
2022-08-26T10:02:25.448Z,100021.80
2022-08-26T10:05:09.295Z,100017.00
2022-08-26T10:07:51.494Z,100022.60
2022-08-26T10:10:34.929Z,100013.80
2022-08-26T10:13:15.618Z,100015.00
2022-08-26T10:15:56.956Z,100016.40
2022-08-26T10:18:36.989Z,100019.40
2022-08-26T10:21:15.467Z,100020.60
2022-08-26T10:23:55.597Z,100017.20
2022-08-26T10:26:37.332Z,100018.20
2022-08-26T10:29:17.347Z,100016.00
2022-08-26T10:32:02.516Z,100013.00
2022-08-26T10:34:37.238Z,100011.00
2022-08-26T10:37:16.719Z,100010.40
2022-08-26T10:39:57.063Z,100008.40
2022-08-26T10:42:38.688Z,100011.00
2022-08-26T10:45:16.648Z,100004.80
2022-08-26T10:47:55.668Z,100004.40
2022-08-26T10:50:34.587Z,100004.80
2022-08-26T10:53:15.818Z,99998.20
2022-08-26T10:56:00.847Z,100000.00
2022-08-26T10:58:50.469Z,99999.20
2022-08-26T11:01:51.044Z,100002.20
2022-08-26T11:04:48.366Z,99998.20
2022-08-26T11:07:45.769Z,99997.00
2022-08-26T11:10:58.885Z,99992.60
2022-08-26T11:14:06.633Z,99997.00
2022-08-26T11:16:52.088Z,99990.60
2022-08-26T11:20:08.978Z,99988.00
2022-08-26T11:22:47.788Z,99988.60
2022-08-26T11:25:27.855Z,99983.20
2022-08-26T11:28:07.293Z,99975.60
2022-08-26T11:30:58.166Z,99981.60
2022-08-26T11:34:00.992Z,99977.00
2022-08-26T11:37:05.212Z,99973.40
2022-08-26T11:39:55.453Z,99975.00
2022-08-26T11:42:37.996Z,99976.00
2022-08-26T11:45:27.059Z,99974.60
2022-08-26T11:48:00.078Z,99970.60
2022-08-26T11:50:33.252Z,99970.60
2022-08-26T11:53:07.770Z,99970.80
2022-08-26T11:55:45.678Z,99966.80
2022-08-26T11:58:21.745Z,99969.80
2022-08-26T12:00:59.215Z,99961.40
2022-08-26T12:03:40.578Z,99960.20
2022-08-26T12:06:24.266Z,99955.60
2022-08-26T12:09:00.211Z,99957.40
2022-08-26T12:11:36.356Z,99956.80
2022-08-26T12:14:18.478Z,99953.60
2022-08-26T12:16:52.134Z,99950.20
2022-08-26T12:19:32.955Z,99944.40
2022-08-26T12:22:16.302Z,99945.20
2022-08-26T12:24:52.772Z,99944.20
2022-08-26T12:27:30.866Z,99942.60
2022-08-26T12:30:14.006Z,99939.80
2022-08-26T12:32:57.561Z,99937.20
2022-08-26T12:35:32.455Z,99942.00
2022-08-26T12:38:05.790Z,99933.80
2022-08-26T12:40:44.219Z,99930.40
2022-08-26T12:43:43.370Z,99930.00
2022-08-26T12:46:25.970Z,99925.60
2022-08-26T12:49:01.619Z,99925.00
2022-08-26T12:51:42.385Z,99924.40
2022-08-26T12:54:19.265Z,99922.40
2022-08-26T12:56:52.199Z,99918.60
2022-08-26T12:59:28.065Z,99918.00
2022-08-26T13:02:01.073Z,99911.20
2022-08-26T13:04:46.581Z,99907.20
2022-08-26T13:07:28.164Z,99906.20
2022-08-26T13:10:02.497Z,99901.20
2022-08-26T13:12:38.404Z,99902.40
2022-08-26T13:15:12.709Z,99898.20
2022-08-26T13:17:45.733Z,99895.60
2022-08-26T13:20:18.793Z,99893.00
2022-08-26T13:22:58.888Z,99893.00
2022-08-26T13:25:32.283Z,99890.60
2022-08-26T13:28:05.622Z,99887.60
2022-08-26T13:30:38.669Z,99884.80
2022-08-26T13:33:14.997Z,99883.60
2022-08-26T13:35:47.835Z,99880.20
2022-08-26T13:38:33.840Z,99874.00
2022-08-26T13:41:07.654Z,99868.40
2022-08-26T13:43:40.672Z,99868.00
2022-08-26T13:46:14.726Z,99867.80
2022-08-26T13:48:47.759Z,99868.60
2022-08-26T13:51:22.647Z,99863.40
2022-08-26T13:53:56.646Z,99863.20
2022-08-26T13:56:31.574Z,99856.40
2022-08-26T13:59:04.755Z,99857.20
2022-08-26T14:01:40.344Z,99850.60
2022-08-26T14:04:13.332Z,99850.40
2022-08-26T14:06:46.585Z,99850.20
2022-08-26T14:09:20.791Z,99848.20
2022-08-26T14:11:54.335Z,99847.40
2022-08-26T14:14:28.139Z,99845.60
2022-08-26T14:17:01.314Z,99845.80
2022-08-26T14:19:34.948Z,99840.80
2022-08-26T14:22:08.419Z,99841.00
2022-08-26T14:24:41.239Z,99837.40
2022-08-26T14:27:14.470Z,99839.20
2022-08-26T14:29:47.887Z,99841.00
2022-08-26T14:32:25.493Z,99839.20
2022-08-26T14:34:57.667Z,99839.60
2022-08-26T14:37:31.811Z,99837.80
2022-08-26T14:40:06.378Z,99845.40
2022-08-26T14:42:40.581Z,99845.60
2022-08-26T14:45:18.760Z,99844.40
2022-08-26T14:47:53.780Z,99846.00
2022-08-26T14:50:28.679Z,99842.80
2022-08-26T14:53:19.501Z,99841.60
2022-08-26T14:55:52.446Z,99840.80
2022-08-26T14:58:25.432Z,99840.00
2022-08-26T15:01:04.558Z,99836.80
2022-08-26T15:03:37.771Z,99830.60
2022-08-26T15:06:11.644Z,99831.20
2022-08-26T15:08:45.531Z,99827.60
2022-08-26T15:11:18.765Z,99826.60
2022-08-26T15:13:51.751Z,99830.80
2022-08-26T15:16:25.313Z,99829.80
2022-08-26T15:18:58.650Z,99825.00
2022-08-26T15:21:32.045Z,99832.80
2022-08-26T15:24:05.577Z,99830.00
2022-08-26T15:26:38.933Z,99826.40
2022-08-26T15:29:12.004Z,99822.00
2022-08-26T15:31:45.346Z,99822.80
2022-08-26T15:34:19.294Z,99820.60
2022-08-26T15:36:54.675Z,99816.80
2022-08-26T15:39:27.668Z,99819.40
2022-08-26T15:42:01.331Z,99816.00
2022-08-26T15:44:36.962Z,99817.40
2022-08-26T15:47:10.164Z,99810.40
2022-08-26T15:49:43.190Z,99809.40
2022-08-26T15:52:17.204Z,99811.00
2022-08-26T15:54:50.189Z,99814.80
2022-08-26T15:57:23.584Z,99808.80
2022-08-26T15:59:56.575Z,99810.00
2022-08-26T16:02:32.315Z,99806.60
2022-08-26T16:05:06.089Z,99802.40
2022-08-26T16:07:40.655Z,99798.40
2022-08-26T16:10:14.630Z,99795.80
2022-08-26T16:12:47.444Z,99796.00
2022-08-26T16:15:22.190Z,99792.60
2022-08-26T16:17:55.194Z,99793.80
2022-08-26T16:20:28.038Z,99794.20
2022-08-26T16:23:01.386Z,99789.80
2022-08-26T16:25:34.957Z,99786.60
2022-08-26T16:28:09.865Z,99787.20
2022-08-26T16:30:46.224Z,99788.00
2022-08-26T16:33:29.079Z,99791.00
2022-08-26T16:36:02.802Z,99786.00
2022-08-26T16:38:36.375Z,99786.00
2022-08-26T16:41:10.594Z,99785.80
2022-08-26T16:43:43.562Z,99779.80
2022-08-26T16:46:17.380Z,99775.80
2022-08-26T16:48:50.356Z,99771.60
2022-08-26T16:51:27.343Z,99771.80
2022-08-26T16:54:02.616Z,99768.60
2022-08-26T16:56:36.242Z,99771.40
2022-08-26T16:59:11.899Z,99768.40
2022-08-26T17:01:44.872Z,99771.20
2022-08-26T17:04:19.544Z,99776.40
2022-08-26T17:06:52.628Z,99775.60
2022-08-26T17:09:26.075Z,99769.40
2022-08-26T17:11:59.122Z,99773.40
2022-08-26T17:14:33.788Z,99770.20
2022-08-26T17:17:07.234Z,99772.40
2022-08-26T17:19:47.031Z,99769.40
2022-08-26T17:22:20.924Z,99773.80
2022-08-26T17:24:54.024Z,99777.00
2022-08-26T17:27:26.854Z,99772.20
2022-08-26T17:29:59.850Z,99770.80
2022-08-26T17:32:32.929Z,99775.00
2022-08-26T17:35:07.507Z,99778.20
2022-08-26T17:37:40.543Z,99776.40
2022-08-26T17:40:20.453Z,99775.20
2022-08-26T17:42:53.374Z,99767.40
2022-08-26T17:45:26.904Z,99773.40
2022-08-26T17:48:00.942Z,99768.60
2022-08-26T17:50:33.894Z,99763.80
2022-08-26T17:53:06.689Z,99760.20
2022-08-26T17:55:41.794Z,99761.20
2022-08-26T17:58:19.999Z,99758.60
2022-08-26T18:00:54.974Z,99760.00
2022-08-26T18:03:27.957Z,99761.00
2022-08-26T18:06:01.026Z,99762.60
2022-08-26T18:08:33.871Z,99766.20
2022-08-26T18:11:11.464Z,99775.60
2022-08-26T18:13:47.053Z,99780.80
2022-08-26T18:16:21.509Z,99780.40
2022-08-26T18:18:54.862Z,99788.00
2022-08-26T18:21:29.862Z,99785.80
2022-08-26T18:24:03.182Z,99780.60
2022-08-26T18:26:41.594Z,99780.40
2022-08-26T18:29:14.480Z,99784.40
2022-08-26T18:31:47.363Z,99782.80
2022-08-26T18:34:21.174Z,99783.80
2022-08-26T18:36:54.235Z,99779.20
2022-08-26T18:39:27.065Z,99778.60
2022-08-26T18:41:59.958Z,99771.00
2022-08-26T18:44:32.956Z,99768.20
2022-08-26T18:47:05.964Z,99777.20
2022-08-26T18:49:39.177Z,99777.20
2022-08-26T18:52:12.075Z,99779.80
2022-08-26T18:54:45.679Z,99779.00
2022-08-26T18:57:18.516Z,99785.20
2022-08-26T18:59:51.460Z,99789.00
2022-08-26T19:02:24.765Z,99790.00
2022-08-26T19:04:58.663Z,99789.60
2022-08-26T19:07:33.112Z,99793.80
2022-08-26T19:10:08.854Z,99792.40
2022-08-26T19:12:42.956Z,99795.20
2022-08-26T19:15:18.452Z,99795.40
2022-08-26T19:17:51.604Z,99797.20
2022-08-26T19:20:24.895Z,99799.40
2022-08-26T19:23:02.652Z,99804.00
2022-08-26T19:25:49.164Z,99811.40
2022-08-26T19:28:23.683Z,99817.60
2022-08-26T19:30:56.795Z,99822.60
2022-08-26T19:33:30.579Z,99820.40
2022-08-26T19:36:06.360Z,99819.40
2022-08-26T19:38:39.737Z,99827.20
2022-08-26T19:41:15.631Z,99829.40
2022-08-26T19:43:48.713Z,99828.40
2022-08-26T19:46:24.394Z,99824.20
2022-08-26T19:48:58.179Z,99829.00
2022-08-26T19:51:37.550Z,99826.40
2022-08-26T19:54:11.066Z,99825.60
2022-08-26T19:56:46.896Z,99826.20
2022-08-26T19:59:22.257Z,99828.00
2022-08-26T20:02:00.699Z,99832.60
2022-08-26T20:04:35.575Z,99827.80
2022-08-26T20:07:09.547Z,99833.20
2022-08-26T20:09:42.689Z,99832.40
2022-08-26T20:12:17.484Z,99838.40
2022-08-26T20:14:50.569Z,99834.80
2022-08-26T20:17:23.453Z,99831.40
2022-08-26T20:20:21.847Z,99826.00
2022-08-26T20:23:06.279Z,99819.60
2022-08-26T20:25:39.548Z,99815.40
2022-08-26T20:28:12.634Z,99804.80
2022-08-26T20:30:45.417Z,99800.60
2022-08-26T20:33:18.855Z,99791.80
2022-08-26T20:35:51.745Z,99792.80
2022-08-26T20:38:24.747Z,99801.40
2022-08-26T20:40:57.875Z,99800.60
2022-08-26T20:43:30.862Z,99806.00
2022-08-26T20:46:04.192Z,99816.40
2022-08-26T20:48:41.342Z,99818.00
2022-08-26T20:51:14.437Z,99820.40
2022-08-26T20:53:47.543Z,99817.00
2022-08-26T20:56:24.636Z,99809.80
2022-08-26T20:59:02.928Z,99814.60
2022-08-26T21:01:42.150Z,99823.40
2022-08-26T21:04:22.811Z,99823.00
2022-08-26T21:06:56.172Z,99825.00
2022-08-26T21:09:30.244Z,99824.80
2022-08-26T21:12:04.266Z,99817.40
2022-08-26T21:14:37.226Z,99817.00
2022-08-26T21:17:10.115Z,99816.00
2022-08-26T21:19:42.997Z,99817.80
2022-08-26T21:22:15.774Z,99820.80
2022-08-26T21:24:49.488Z,99824.60
2022-08-26T21:27:26.240Z,99823.80
2022-08-26T21:30:00.067Z,99816.60
2022-08-26T21:32:33.983Z,99809.20
2022-08-26T21:35:07.898Z,99795.60
2022-08-26T21:37:40.788Z,99790.60
2022-08-26T21:40:15.428Z,99786.00
2022-08-26T21:42:48.411Z,99791.00
2022-08-26T21:45:21.841Z,99793.60
2022-08-26T21:47:55.270Z,99793.20
2022-08-26T21:50:29.899Z,99796.00
2022-08-26T21:53:03.090Z,99794.00
2022-08-26T21:55:39.455Z,99785.40
2022-08-26T21:58:13.123Z,99786.20
2022-08-26T22:00:53.213Z,99787.80
2022-08-26T22:03:26.309Z,99805.60
2022-08-26T22:06:01.749Z,99803.80
2022-08-26T22:08:35.244Z,99807.00
2022-08-26T22:11:09.997Z,99810.40
2022-08-26T22:13:44.828Z,99813.20
2022-08-26T22:16:18.653Z,99808.60
2022-08-26T22:18:51.901Z,99801.60
2022-08-26T22:21:28.208Z,99795.20
2022-08-26T22:24:01.652Z,99786.60
2022-08-26T22:26:36.615Z,99789.40
2022-08-26T22:29:09.727Z,99786.80
2022-08-26T22:31:43.030Z,99791.80
2022-08-26T22:34:19.823Z,99800.80
2022-08-26T22:36:53.543Z,99792.60
2022-08-26T22:39:28.787Z,99783.80
2022-08-26T22:42:01.793Z,99776.40
2022-08-26T22:44:37.325Z,99767.60
2022-08-26T22:47:10.522Z,99771.80
2022-08-26T22:49:43.307Z,99772.00
2022-08-26T22:52:16.216Z,99777.20
2022-08-26T22:54:49.439Z,99775.80
2022-08-26T22:57:23.076Z,99774.60
2022-08-26T22:59:55.822Z,99773.00
2022-08-26T23:02:29.047Z,99774.60
2022-08-26T23:05:01.934Z,99768.60
2022-08-26T23:07:34.822Z,99765.00
2022-08-26T23:10:11.647Z,99761.00
2022-08-26T23:12:44.586Z,99760.60
2022-08-26T23:15:18.613Z,99758.00
2022-08-26T23:17:58.439Z,99750.80
2022-08-26T23:20:33.980Z,99746.60
2022-08-26T23:23:06.968Z,99744.80
2022-08-26T23:25:39.890Z,99752.60
2022-08-26T23:28:14.376Z,99756.20
2022-08-26T23:30:47.632Z,99757.80
2022-08-26T23:33:20.693Z,99753.00
2022-08-26T23:35:53.754Z,99748.40
2022-08-26T23:38:27.302Z,99748.80
2022-08-26T23:41:02.800Z,99747.00
2022-08-26T23:43:35.749Z,99747.00
2022-08-26T23:46:08.927Z,99749.80
2022-08-26T23:48:41.933Z,99741.20
2022-08-26T23:51:32.762Z,99739.80
2022-08-26T23:54:05.767Z,99745.20
2022-08-26T23:56:42.485Z,99748.60
2022-08-26T23:59:15.824Z,99747.40
